Time;durP1;ratioP1;P1;durP2;ratioP2;P2;SDS_P1;SDS_P2;PMS_P1;PMS_P2;Temp;Humidity;BMP_temperature;BMP_pressure;BME280_temperature;BME280_humidity;BME280_pressure;Samples;Min_cycle;Max_cycle;Signal;HPM_P1;HPM_P2
2022/07/18 00:00:07;;;;;;;2.47;1.70;;;;;;;18.91;48.58;97325.88;5033943;28;20029;-62
2022/07/18 00:02:32;;;;;;;4.65;1.90;;;;;;;18.76;48.58;97329.91;5032287;28;20429;-61
2022/07/18 00:04:58;;;;;;;4.72;2.05;;;;;;;18.59;48.73;97333.56;5032478;28;20094;-65
2022/07/18 00:07:23;;;;;;;2.97;1.27;;;;;;;18.38;48.38;97334.47;5033375;28;20037;-62
2022/07/18 00:09:49;;;;;;;4.05;1.73;;;;;;;17.86;52.15;97333.06;5032909;28;20390;-62
2022/07/18 00:12:14;;;;;;;3.70;1.98;;;;;;;17.70;53.00;97327.91;5038978;28;20231;-62
2022/07/18 00:14:40;;;;;;;2.75;1.80;;;;;;;17.68;54.04;97330.31;5036014;28;20033;-61
2022/07/18 00:17:07;;;;;;;2.55;1.63;;;;;;;17.84;53.94;97332.63;5032879;28;20049;-62
2022/07/18 00:19:32;;;;;;;4.35;2.00;;;;;;;17.99;54.08;97336.19;5050983;28;20026;-61
2022/07/18 00:21:58;;;;;;;4.75;2.38;;;;;;;18.11;54.27;97340.50;5053263;28;20573;-63
2022/07/18 00:24:23;;;;;;;4.95;1.90;;;;;;;18.12;54.22;97344.88;5052904;28;20025;-62
2022/07/18 00:26:49;;;;;;;3.88;2.13;;;;;;;18.11;54.54;97346.84;5067834;28;20469;-63
2022/07/18 00:29:14;;;;;;;4.25;2.45;;;;;;;18.07;54.45;97350.81;5052627;28;20036;-62
2022/07/18 00:31:40;;;;;;;3.45;1.85;;;;;;;17.98;55.67;97345.69;5068025;28;20029;-62
2022/07/18 00:34:05;;;;;;;3.88;2.17;;;;;;;17.94;56.22;97336.59;5051737;28;20029;-63
2022/07/18 00:36:31;;;;;;;2.95;2.08;;;;;;;17.90;56.21;97344.91;5051541;28;20061;-62
2022/07/18 00:38:57;;;;;;;2.83;1.80;;;;;;;17.88;56.88;97341.75;5054690;28;20021;-62
2022/07/18 00:41:23;;;;;;;3.25;1.90;;;;;;;17.81;56.62;97340.94;5060298;28;20481;-63
2022/07/18 00:43:49;;;;;;;3.08;1.92;;;;;;;17.60;58.20;97339.78;5052065;28;20044;-62
2022/07/18 00:46:14;;;;;;;3.20;1.90;;;;;;;17.38;58.95;97347.34;5052773;28;20024;-62
2022/07/18 00:48:42;;;;;;;5.07;1.90;;;;;;;17.33;60.35;97342.19;5059573;28;20037;-63
2022/07/18 00:51:08;;;;;;;4.10;2.10;;;;;;;17.16;60.04;97333.50;5034439;23;20741;-66
2022/07/18 00:53:34;;;;;;;5.95;2.20;;;;;;;16.75;63.46;97333.81;5034140;28;20054;-66
2022/07/18 00:56:01;;;;;;;3.85;2.05;;;;;;;16.36;65.28;97333.69;5022320;28;20026;-66
2022/07/18 00:58:27;;;;;;;4.05;2.33;;;;;;;16.06;67.77;97334.72;5024741;28;20029;-69
2022/07/18 01:03:37;;;;;;;4.75;2.60;;;;;;;16.45;67.36;97336.88;5012030;28;20065;-68
2022/07/18 01:06:02;;;;;;;6.03;2.25;;;;;;;16.61;66.93;97331.00;5011487;28;20110;-69
2022/07/18 01:08:28;;;;;;;7.63;2.60;;;;;;;16.70;66.42;97328.66;5012239;28;20042;-67
2022/07/18 01:10:54;;;;;;;3.78;2.38;;;;;;;16.35;66.95;97334.84;5010852;28;20065;-67
2022/07/18 01:13:20;;;;;;;3.45;2.03;;;;;;;16.39;67.97;97338.44;5010979;28;20060;-67
2022/07/18 01:15:46;;;;;;;3.58;2.28;;;;;;;16.51;67.65;97340.84;5011659;28;20034;-68
2022/07/18 01:18:12;;;;;;;6.00;1.73;;;;;;;16.56;67.10;97342.44;5011950;28;20077;-68
2022/07/18 01:20:37;;;;;;;2.92;2.08;;;;;;;16.61;66.56;97337.31;5012145;28;20053;-68
2022/07/18 01:23:03;;;;;;;3.35;2.30;;;;;;;16.64;66.46;97341.28;5011962;28;20107;-67
2022/07/18 01:25:28;;;;;;;3.45;2.25;;;;;;;16.62;66.83;97346.41;5010614;28;20045;-67
2022/07/18 01:27:55;;;;;;;3.50;2.30;;;;;;;16.33;67.15;97337.22;5008239;28;20038;-67
2022/07/18 01:30:21;;;;;;;3.97;2.72;;;;;;;16.25;67.61;97345.47;5006843;28;20061;-66
2022/07/18 01:32:46;;;;;;;5.70;2.28;;;;;;;16.18;68.73;97339.13;5010577;28;20034;-68
2022/07/18 01:35:11;;;;;;;4.13;2.25;;;;;;;16.25;69.15;97342.72;5012054;28;20038;-68
2022/07/18 01:37:37;;;;;;;3.30;2.45;;;;;;;16.25;68.77;97345.47;5010037;28;20041;-67
2022/07/18 01:40:10;;;;;;;5.20;2.25;;;;;;;16.24;69.07;97348.63;5001451;28;20032;-69
2022/07/18 01:42:35;;;;;;;4.88;2.70;;;;;;;16.20;69.54;97350.59;5010361;28;20159;-68
2022/07/18 01:45:01;;;;;;;5.35;2.92;;;;;;;15.94;71.10;97354.44;5004262;28;20503;-68
2022/07/18 01:47:26;;;;;;;6.13;2.38;;;;;;;15.88;71.69;97356.75;5011025;28;20030;-67
2022/07/18 01:49:52;;;;;;;6.95;2.75;;;;;;;15.85;72.13;97350.03;5011640;28;20498;-68
2022/07/18 01:52:17;;;;;;;6.20;2.90;;;;;;;15.82;72.35;97350.00;5013771;28;20395;-67
2022/07/18 01:54:43;;;;;;;8.23;3.00;;;;;;;15.75;72.27;97349.97;5018730;28;20069;-69
2022/07/18 01:57:08;;;;;;;4.78;2.80;;;;;;;15.73;73.07;97360.56;5017602;28;20084;-69
2022/07/18 01:59:35;;;;;;;4.70;2.42;;;;;;;15.77;72.94;97355.88;5017142;28;20394;-69
2022/07/18 02:02:03;;;;;;;4.57;2.70;;;;;;;15.73;71.77;97344.78;5009760;28;20030;-67
2022/07/18 02:07:11;;;;;;;4.75;2.60;;;;;;;15.68;72.88;97347.91;4998834;28;20110;-68
2022/07/18 02:09:37;;;;;;;8.30;2.50;;;;;;;15.59;72.08;97345.50;5008672;28;20098;-68
2022/07/18 02:12:02;;;;;;;4.18;2.25;;;;;;;15.60;72.56;97349.06;5011167;28;20072;-67
2022/07/18 02:14:28;;;;;;;5.18;2.70;;;;;;;15.66;72.90;97353.03;5011597;28;20038;-66
2022/07/18 02:16:53;;;;;;;10.68;3.60;;;;;;;15.62;72.90;97352.22;5010906;28;20038;-67
2022/07/18 02:19:18;;;;;;;4.40;2.58;;;;;;;15.56;73.13;97345.47;5026408;28;20072;-67
2022/07/18 02:21:44;;;;;;;4.68;2.30;;;;;;;15.48;73.09;97344.63;5010047;28;20089;-68
2022/07/18 02:24:09;;;;;;;3.15;2.33;;;;;;;15.41;74.25;97348.13;5009865;28;20052;-68
2022/07/18 02:26:35;;;;;;;6.47;2.90;;;;;;;15.49;75.39;97354.50;5010850;28;20026;-68
2022/07/18 02:29:00;;;;;;;3.65;2.60;;;;;;;15.50;75.70;97350.53;5012475;28;20057;-68
2022/07/18 02:31:25;;;;;;;4.60;2.65;;;;;;;15.48;75.44;97352.91;5003224;28;20030;-68
2022/07/18 02:33:51;;;;;;;3.53;2.50;;;;;;;15.47;75.11;97349.34;5010574;28;20057;-68
2022/07/18 02:36:16;;;;;;;6.80;2.67;;;;;;;15.31;75.63;97353.56;5010519;28;20033;-68
2022/07/18 02:38:41;;;;;;;4.53;2.45;;;;;;;15.34;75.93;97350.03;5002797;28;20542;-68
2022/07/18 02:41:07;;;;;;;4.07;2.95;;;;;;;15.33;76.00;97351.22;5011169;28;20076;-67
2022/07/18 02:43:32;;;;;;;6.38;2.80;;;;;;;15.28;77.17;97355.13;5015373;28;20058;-67
2022/07/18 02:45:58;;;;;;;4.18;2.60;;;;;;;15.17;77.32;97359.75;5035593;28;20501;-67
2022/07/18 02:48:23;;;;;;;6.70;3.00;;;;;;;15.01;77.86;97360.78;5020681;28;20096;-68
2022/07/18 02:50:48;;;;;;;8.05;3.15;;;;;;;14.70;79.81;97362.06;5016146;28;20057;-68
2022/07/18 02:53:13;;;;;;;6.40;3.22;;;;;;;14.45;78.70;97357.03;5013068;28;20038;-67
2022/07/18 02:55:39;;;;;;;3.25;2.50;;;;;;;14.31;79.25;97356.84;5002229;28;20038;-69
2022/07/18 02:58:04;;;;;;;5.38;3.00;;;;;;;14.33;80.44;97362.78;5010680;28;20092;-67
2022/07/18 03:00:30;;;;;;;4.70;3.20;;;;;;;14.49;83.08;97365.34;5011746;28;20029;-67
2022/07/18 03:02:55;;;;;;;4.80;2.90;;;;;;;14.54;81.85;97363.03;5006633;28;20036;-67
2022/07/18 03:05:21;;;;;;;4.07;3.03;;;;;;;14.61;83.04;97364.31;5014714;28;20108;-67
2022/07/18 03:07:46;;;;;;;5.18;2.50;;;;;;;14.69;82.68;97361.28;5013643;28;20033;-66
2022/07/18 03:10:11;;;;;;;6.13;2.63;;;;;;;14.67;82.85;97366.34;5013369;28;20483;-68
2022/07/18 03:12:39;;;;;;;6.05;2.70;;;;;;;14.78;82.04;97371.19;5006212;28;20421;-67
2022/07/18 03:15:05;;;;;;;8.68;2.95;;;;;;;14.88;80.14;97371.31;5014443;28;20037;-67
2022/07/18 03:17:30;;;;;;;5.32;2.67;;;;;;;15.11;78.44;97370.34;5005883;28;20033;-66
2022/07/18 03:19:55;;;;;;;4.40;2.70;;;;;;;15.12;77.60;97371.91;5004587;28;20034;-68
2022/07/18 03:22:21;;;;;;;6.32;3.10;;;;;;;15.16;78.30;97370.00;5008145;28;20558;-68
2022/07/18 03:24:46;;;;;;;4.30;2.97;;;;;;;15.10;78.50;97363.22;5011788;28;20127;-66
2022/07/18 03:27:11;;;;;;;5.20;2.47;;;;;;;15.03;78.92;97371.44;5013854;28;20037;-67
2022/07/18 03:29:37;;;;;;;5.30;2.90;;;;;;;14.96;79.09;97357.59;5005624;28;20038;-67
2022/07/18 03:32:02;;;;;;;5.20;3.35;;;;;;;14.88;80.09;97359.47;5012583;28;20052;-67
2022/07/18 03:34:28;;;;;;;7.63;2.75;;;;;;;14.84;80.07;97361.44;5013404;28;20049;-67
2022/07/18 03:36:53;;;;;;;3.60;2.75;;;;;;;14.91;79.96;97365.03;5013463;28;20037;-67
2022/07/18 03:39:18;;;;;;;4.75;3.22;;;;;;;14.90;79.40;97368.16;5005168;28;20038;-67
2022/07/18 03:41:44;;;;;;;5.05;2.70;;;;;;;14.95;79.56;97373.34;5013851;28;20034;-67
2022/07/18 03:44:09;;;;;;;7.13;2.90;;;;;;;14.90;79.26;97374.47;5013758;28;20022;-67
2022/07/18 03:46:34;;;;;;;4.03;2.67;;;;;;;14.86;79.83;97367.34;5013548;28;20033;-68
2022/07/18 03:49:00;;;;;;;5.40;2.83;;;;;;;14.88;79.63;97367.75;5012791;28;20061;-68
2022/07/18 03:51:26;;;;;;;7.45;2.80;;;;;;;14.83;79.07;97374.41;5014097;28;20030;-67
2022/07/18 03:53:52;;;;;;;6.40;3.38;;;;;;;14.72;79.38;97373.50;5018030;28;20451;-67
2022/07/18 03:56:17;;;;;;;9.82;3.17;;;;;;;14.81;79.25;97378.72;5013831;28;20040;-64
2022/07/18 03:58:43;;;;;;;7.30;3.10;;;;;;;14.82;79.29;97372.00;5013825;28;20499;-68
2022/07/18 04:01:09;;;;;;;6.18;2.78;;;;;;;14.84;79.08;97376.00;5012459;28;20033;-66
2022/07/18 04:03:34;;;;;;;4.55;2.83;;;;;;;14.88;78.48;97381.56;5004720;28;20029;-67
2022/07/18 04:06:00;;;;;;;6.60;3.05;;;;;;;14.96;77.50;97379.66;5011557;28;20037;-66
2022/07/18 04:08:25;;;;;;;6.47;2.67;;;;;;;15.12;77.17;97379.41;5015641;28;20038;-68
2022/07/18 04:10:51;;;;;;;7.57;2.63;;;;;;;15.22;77.13;97387.00;5012438;28;20383;-67
2022/07/18 04:13:16;;;;;;;8.60;2.95;;;;;;;15.29;77.09;97385.09;5011281;28;20061;-65
2022/07/18 04:15:42;;;;;;;6.82;2.75;;;;;;;15.34;76.90;97381.19;5013141;28;20038;-68
2022/07/18 04:18:08;;;;;;;5.80;3.30;;;;;;;15.38;76.33;97384.00;5012847;28;20034;-67
2022/07/18 04:20:34;;;;;;;5.18;3.13;;;;;;;15.44;76.12;97386.00;5004884;28;20072;-68
2022/07/18 04:23:03;;;;;;;5.50;3.05;;;;;;;15.27;77.28;97392.19;5004355;28;20490;-67
2022/07/18 04:25:34;;;;;;;8.20;3.45;;;;;;;15.49;76.32;97391.16;5012888;28;20038;-66
2022/07/18 04:27:59;;;;;;;11.00;3.55;;;;;;;15.54;75.45;97387.28;5013425;28;20379;-67
2022/07/18 04:30:26;;;;;;;5.00;3.00;;;;;;;15.68;75.64;97392.09;5030399;28;20056;-66
2022/07/18 04:32:53;;;;;;;5.88;3.10;;;;;;;15.86;74.51;97392.25;5029168;28;20022;-67
2022/07/18 04:35:19;;;;;;;9.63;2.95;;;;;;;16.03;74.26;97390.78;5013155;28;20139;-66
2022/07/18 04:37:44;;;;;;;4.45;3.00;;;;;;;16.21;73.41;97388.13;5013461;28;20034;-67
2022/07/18 04:40:10;;;;;;;3.90;2.63;;;;;;;16.29;74.14;97389.72;5024950;28;20037;-66
2022/07/18 04:42:36;;;;;;;4.97;2.70;;;;;;;16.23;73.74;97391.28;5031411;28;20595;-67
2022/07/18 04:45:02;;;;;;;8.07;3.45;;;;;;;16.23;73.02;97394.06;5033401;28;20085;-66
2022/07/18 04:47:28;;;;;;;7.40;3.10;;;;;;;16.41;72.88;97394.91;5026160;28;20041;-67
2022/07/18 04:49:54;;;;;;;5.75;2.85;;;;;;;16.60;71.53;97398.53;5019269;28;20033;-67
2022/07/18 04:52:20;;;;;;;6.20;3.10;;;;;;;16.80;69.91;97397.03;5011866;28;20498;-68
2022/07/18 04:54:46;;;;;;;6.47;3.17;;;;;;;16.96;69.31;97402.25;5011381;28;20038;-68
2022/07/18 04:57:14;;;;;;;4.90;3.03;;;;;;;17.12;68.11;97393.56;5012404;28;20033;-66
2022/07/18 04:59:43;;;;;;;4.55;3.00;;;;;;;17.23;68.44;97399.13;5021480;28;20030;-68
2022/07/18 05:02:09;;;;;;;9.10;3.65;;;;;;;17.57;66.62;97401.50;5033099;28;20026;-67
2022/07/18 05:04:36;;;;;;;7.22;3.47;;;;;;;18.22;64.92;97396.72;5019128;28;20438;-68
2022/07/18 05:07:02;;;;;;;4.85;3.08;;;;;;;19.77;58.38;97396.66;5003548;28;20064;-68
2022/07/18 05:09:28;;;;;;;7.78;3.30;;;;;;;19.65;57.68;97399.91;5012470;28;20030;-67
2022/07/18 05:11:54;;;;;;;5.57;2.85;;;;;;;20.73;53.71;97391.25;5012260;28;20052;-69
2022/07/18 05:14:20;;;;;;;7.18;2.58;;;;;;;22.91;47.42;97385.94;4994846;28;20394;-66
2022/07/18 05:16:46;;;;;;;4.47;2.22;;;;;;;25.02;41.77;97389.38;5010793;28;20030;-67
2022/07/18 05:19:12;;;;;;;3.95;2.20;;;;;;;26.40;38.49;97392.09;5012164;28;20089;-68
2022/07/18 05:21:38;;;;;;;2.45;1.80;;;;;;;27.84;35.58;97388.19;5011939;28;20034;-67
2022/07/18 05:24:04;;;;;;;3.95;2.15;;;;;;;28.96;32.34;97386.94;5011350;28;20569;-68
2022/07/18 05:26:29;;;;;;;4.38;2.00;;;;;;;29.42;31.63;97382.41;5011671;28;20112;-68
2022/07/18 05:28:54;;;;;;;3.55;2.03;;;;;;;29.77;30.94;97382.72;5011947;28;20566;-68
2022/07/18 05:31:20;;;;;;;3.20;1.63;;;;;;;30.22;29.99;97386.47;5010623;28;20022;-68
2022/07/18 05:33:45;;;;;;;4.53;1.92;;;;;;;30.82;28.74;97387.38;5011788;28;20088;-68
2022/07/18 05:36:11;;;;;;;4.28;1.73;;;;;;;30.97;28.31;97390.25;5011486;28;20022;-68
2022/07/18 05:38:36;;;;;;;3.30;1.83;;;;;;;30.41;28.79;97395.59;5017308;28;20038;-67
2022/07/18 05:41:02;;;;;;;4.65;2.20;;;;;;;30.38;28.96;97390.13;5017216;28;20073;-69
2022/07/18 05:43:28;;;;;;;4.10;1.98;;;;;;;29.88;30.51;97385.78;5015507;28;20448;-68
2022/07/18 05:45:53;;;;;;;4.00;1.88;;;;;;;31.20;28.87;97384.94;5013378;28;20030;-68
2022/07/18 05:48:18;;;;;;;2.83;1.50;;;;;;;32.42;26.91;97388.47;5011884;28;20041;-69
2022/07/18 05:50:44;;;;;;;3.88;1.80;;;;;;;33.16;25.82;97396.47;4993741;28;20045;-68
2022/07/18 05:53:11;;;;;;;3.90;1.77;;;;;;;33.30;25.90;97387.03;5008410;28;20087;-68
2022/07/18 05:55:37;;;;;;;6.93;1.83;;;;;;;32.81;25.44;97388.91;5011349;28;20491;-68
2022/07/18 05:58:02;;;;;;;5.97;1.80;;;;;;;33.33;25.43;97388.88;5011622;28;20065;-67
2022/07/18 06:00:28;;;;;;;2.72;1.40;;;;;;;33.68;24.94;97387.81;5014423;28;20022;-67
2022/07/18 06:02:53;;;;;;;3.70;1.67;;;;;;;33.68;25.17;97384.97;5012908;28;20049;-67
2022/07/18 06:05:19;;;;;;;5.88;1.88;;;;;;;33.96;24.89;97390.06;5011736;28;20030;-67
2022/07/18 06:07:44;;;;;;;7.15;2.00;;;;;;;33.82;25.03;97385.34;5011587;28;20038;-66
2022/07/18 06:10:10;;;;;;;8.65;2.00;;;;;;;33.82;24.84;97382.50;5011380;28;20041;-69
2022/07/18 06:12:35;;;;;;;7.15;3.72;;;;;;;30.95;28.29;97387.09;5011594;28;20085;-68
2022/07/18 06:15:01;;;;;;;5.88;2.00;;;;;;;31.00;28.34;97377.16;5009852;28;20053;-68
2022/07/18 06:17:29;;;;;;;5.18;1.58;;;;;;;31.77;28.20;97386.59;5008809;28;20426;-69
2022/07/18 06:19:55;;;;;;;5.80;1.58;;;;;;;32.62;26.71;97387.69;5011186;28;20050;-68
2022/07/18 06:22:22;;;;;;;6.47;1.98;;;;;;;30.68;29.79;97383.28;5010375;28;20100;-68
2022/07/18 06:24:47;;;;;;;3.72;1.70;;;;;;;31.08;29.23;97366.22;5011403;28;20541;-69
2022/07/18 06:27:13;;;;;;;5.25;1.92;;;;;;;30.51;30.01;97373.72;5011028;28;20038;-68
2022/07/18 06:29:38;;;;;;;4.50;1.70;;;;;;;28.29;32.28;97376.66;5011100;28;20109;-67
2022/07/18 06:32:04;;;;;;;5.88;1.95;;;;;;;30.60;30.19;97373.63;5009045;28;20038;-69
2022/07/18 06:34:29;;;;;;;4.72;1.60;;;;;;;32.28;27.77;97376.72;5000391;28;20084;-69
2022/07/18 06:36:55;;;;;;;6.10;1.75;;;;;;;33.12;26.17;97385.34;5002522;28;20057;-69
2022/07/18 06:39:20;;;;;;;3.67;1.27;;;;;;;32.83;26.02;97383.50;4998256;28;20030;-68
2022/07/18 06:41:46;;;;;;;5.78;1.75;;;;;;;27.48;34.58;97379.63;5005183;28;20050;-69
2022/07/18 06:44:11;;;;;;;3.22;1.52;;;;;;;27.33;34.39;97390.69;5013749;28;20050;-67
2022/07/18 06:46:36;;;;;;;18.60;11.38;;;;;;;24.92;39.83;97377.28;5008880;28;20049;-68
2022/07/18 06:49:04;;;;;;;4.70;2.33;;;;;;;24.82;41.33;97378.38;4993433;28;20133;-65
2022/07/18 06:51:31;;;;;;;10.10;2.90;;;;;;;24.07;42.69;97377.66;5016270;23;20390;-68
2022/07/18 06:53:57;;;;;;;4.03;2.65;;;;;;;24.08;42.90;97373.63;5042268;28;20038;-66
2022/07/18 06:56:23;;;;;;;5.65;2.15;;;;;;;25.73;40.40;97368.72;5015996;28;20680;-67
2022/07/18 06:58:49;;;;;;;6.10;2.65;;;;;;;25.98;40.56;97375.53;5039991;28;20135;-67
2022/07/18 07:01:17;;;;;;;3.97;2.88;;;;;;;29.01;33.65;97370.63;5019543;28;20037;-67
2022/07/18 07:03:42;;;;;;;9.27;2.13;;;;;;;29.48;32.79;97369.22;5040210;28;20041;-67
2022/07/18 07:06:08;;;;;;;5.45;2.08;;;;;;;26.38;38.59;97372.91;5019676;28;20042;-64
2022/07/18 07:08:33;;;;;;;6.10;2.90;;;;;;;27.63;36.14;97381.41;5025715;28;20528;-65
2022/07/18 07:10:59;;;;;;;6.68;2.22;;;;;;;28.50;34.59;97377.75;5026338;28;20045;-66
2022/07/18 07:13:25;;;;;;;4.72;2.30;;;;;;;30.28;31.86;97375.28;5019702;28;20041;-65
2022/07/18 07:15:50;;;;;;;4.10;2.25;;;;;;;31.91;29.12;97379.31;5021586;28;20068;-66
2022/07/18 07:18:16;;;;;;;4.22;2.35;;;;;;;30.29;31.29;97377.63;5020599;28;20110;-66
2022/07/18 07:20:41;;;;;;;5.20;2.10;;;;;;;30.37;31.55;97378.06;5026728;28;20115;-66
2022/07/18 07:23:09;;;;;;;6.03;2.13;;;;;;;30.98;30.74;97382.53;5021580;28;20045;-65
2022/07/18 07:25:36;;;;;;;4.00;2.22;;;;;;;29.66;32.84;97376.81;5024565;28;20394;-66
2022/07/18 07:28:02;;;;;;;7.32;2.22;;;;;;;27.13;38.11;97383.38;5025707;28;20061;-66
2022/07/18 07:30:27;;;;;;;5.65;2.45;;;;;;;27.45;37.63;97381.34;5022073;28;20494;-66
2022/07/18 07:32:53;;;;;;;6.10;2.45;;;;;;;26.09;40.04;97375.94;5024708;28;20041;-65
2022/07/18 07:35:19;;;;;;;8.38;2.05;;;;;;;28.54;36.40;97378.38;5020972;28;20040;-67
2022/07/18 07:37:54;;;;;;;8.43;1.95;;;;;;;27.38;37.99;97365.53;5024930;28;20056;-66
2022/07/18 07:40:21;;;;;;;10.43;2.72;;;;;;;30.66;31.96;97370.88;5018918;28;20297;-65
2022/07/18 07:42:47;;;;;;;4.50;2.40;;;;;;;27.50;37.28;97379.97;5025198;28;20128;-67
2022/07/18 07:45:13;;;;;;;6.18;2.47;;;;;;;28.04;36.94;97375.72;5018446;28;20184;-67
2022/07/18 07:47:39;;;;;;;5.07;2.15;;;;;;;30.67;32.39;97375.28;5023448;28;20041;-65
2022/07/18 07:50:07;;;;;;;3.60;2.10;;;;;;;28.46;35.63;97369.44;5018511;28;20169;-64
2022/07/18 07:52:32;;;;;;;7.10;2.40;;;;;;;30.88;31.82;97359.19;5023723;28;20108;-66
2022/07/18 07:54:57;;;;;;;9.15;2.63;;;;;;;28.10;36.54;97371.03;5005322;28;20124;-67
2022/07/18 07:57:23;;;;;;;5.60;2.35;;;;;;;28.12;36.36;97360.06;5028761;28;21121;-66
2022/07/18 07:59:48;;;;;;;6.68;2.58;;;;;;;28.82;36.09;97361.44;5023808;28;20393;-65
2022/07/18 08:02:15;;;;;;;4.45;2.47;;;;;;;25.95;41.43;97360.41;5017963;28;20073;-67
2022/07/18 08:04:41;;;;;;;4.75;2.92;;;;;;;26.02;41.77;97362.16;5023762;28;20406;-65
2022/07/18 08:07:06;;;;;;;5.95;2.40;;;;;;;26.16;42.03;97364.47;5017729;28;20059;-65
2022/07/18 08:09:31;;;;;;;6.85;2.50;;;;;;;27.36;39.62;97367.25;5024361;28;20048;-66
2022/07/18 08:11:57;;;;;;;4.70;2.55;;;;;;;29.37;35.62;97361.28;5024625;28;20053;-67
2022/07/18 08:14:22;;;;;;;7.28;2.83;;;;;;;29.87;34.11;97366.50;5019788;28;20045;-67
2022/07/18 08:16:48;;;;;;;7.88;2.83;;;;;;;27.49;37.69;97365.09;5033555;28;20113;-66
2022/07/18 08:19:13;;;;;;;6.20;2.30;;;;;;;27.42;37.97;97365.41;5020356;28;20045;-67
2022/07/18 08:21:39;;;;;;;3.70;2.65;;;;;;;27.98;38.17;97363.50;5023569;28;20042;-66
2022/07/18 08:24:04;;;;;;;3.60;2.30;;;;;;;29.25;35.65;97363.03;5018860;28;20046;-64
2022/07/18 08:26:30;;;;;;;3.35;2.15;;;;;;;29.21;35.54;97361.63;5023345;28;20041;-66
2022/07/18 08:28:55;;;;;;;4.80;2.15;;;;;;;29.71;33.72;97357.16;5024188;28;20025;-67
2022/07/18 08:31:21;;;;;;;4.35;2.30;;;;;;;29.15;34.40;97365.13;5017958;28;20863;-66
2022/07/18 08:33:47;;;;;;;5.82;2.22;;;;;;;29.65;33.79;97355.47;5023302;28;20112;-67
2022/07/18 08:36:12;;;;;;;6.68;2.35;;;;;;;27.07;39.21;97355.09;5017566;28;20044;-66
2022/07/18 08:38:38;;;;;;;5.32;2.50;;;;;;;28.22;37.72;97370.09;5022069;28;20383;-66
2022/07/18 08:41:04;;;;;;;5.85;2.70;;;;;;;29.19;35.58;97358.50;5019927;28;20037;-63
2022/07/18 08:43:30;;;;;;;5.57;2.38;;;;;;;30.05;33.97;97351.44;5021256;28;20053;-66
2022/07/18 08:46:01;;;;;;;6.00;2.80;;;;;;;30.25;33.52;97348.78;5037221;28;20042;-66
2022/07/18 08:48:27;;;;;;;10.02;2.33;;;;;;;29.79;34.03;97351.97;5018283;28;20061;-66
2022/07/18 08:50:53;;;;;;;9.75;3.28;;;;;;;28.53;36.20;97352.25;5021593;28;20044;-66
2022/07/18 08:53:19;;;;;;;7.90;2.75;;;;;;;30.50;33.34;97352.34;5018975;28;20045;-66
2022/07/18 08:55:47;;;;;;;4.10;2.25;;;;;;;31.96;31.29;97344.59;5023930;28;20067;-66
2022/07/18 08:58:14;;;;;;;8.85;2.63;;;;;;;31.03;34.24;97340.19;5016430;28;20151;-67
2022/07/18 09:00:40;;;;;;;5.15;2.78;;;;;;;30.34;35.91;97347.16;5021687;28;20037;-66
2022/07/18 09:03:06;;;;;;;7.47;2.65;;;;;;;30.81;35.23;97342.59;5018021;28;20216;-66
2022/07/18 09:05:33;;;;;;;4.55;3.08;;;;;;;31.34;34.33;97340.91;5022757;28;20118;-66
2022/07/18 09:08:27;;;;;;;4.40;2.63;;;;;;;31.34;34.36;97340.91;5022439;28;20048;-65
2022/07/18 09:10:59;;;;;;;6.40;2.60;;;;;;;30.14;36.61;97342.91;4999956;28;20398;-66
2022/07/18 09:13:39;;;;;;;4.75;2.40;;;;;;;30.72;35.97;97331.41;5016930;28;20515;-66
2022/07/18 09:16:12;;;;;;;6.45;2.53;;;;;;;31.42;35.44;97336.41;5033529;28;20576;-64
2022/07/18 09:18:46;;;;;;;5.50;2.75;;;;;;;31.39;33.85;97341.00;5022558;28;20037;-65
2022/07/18 09:21:20;;;;;;;2.85;2.17;;;;;;;31.34;35.16;97340.91;5016923;28;20136;-66
2022/07/18 09:23:49;;;;;;;6.47;2.58;;;;;;;32.27;33.09;97338.31;5021100;28;20083;-65
2022/07/18 09:26:37;;;;;;;4.83;2.60;;;;;;;31.92;32.63;97344.81;5016448;28;20035;-65
2022/07/18 09:29:03;;;;;;;5.68;2.42;;;;;;;30.99;34.40;97339.63;5018749;28;20772;-63
2022/07/18 09:31:29;;;;;;;5.15;2.78;;;;;;;29.05;37.76;97331.78;5020704;28;20075;-66
2022/07/18 09:33:56;;;;;;;4.78;2.63;;;;;;;30.65;34.73;97326.94;5022084;28;20044;-66
2022/07/18 09:36:22;;;;;;;7.85;3.40;;;;;;;31.35;34.11;97328.31;5016303;28;20266;-65
2022/07/18 09:38:48;;;;;;;4.25;2.85;;;;;;;31.54;33.37;97321.16;5022061;28;20099;-66
2022/07/18 09:41:14;;;;;;;7.57;2.70;;;;;;;32.45;32.64;97328.72;5016962;28;20398;-64
2022/07/18 09:43:39;;;;;;;3.03;2.20;;;;;;;32.40;34.36;97323.78;5026241;28;20060;-66
2022/07/18 09:46:06;;;;;;;4.47;2.80;;;;;;;31.60;35.04;97321.22;5024397;28;20038;-64
2022/07/18 09:48:32;;;;;;;8.95;2.70;;;;;;;32.27;33.48;97318.47;5029081;28;20041;-65
2022/07/18 09:51:03;;;;;;;5.53;2.78;;;;;;;30.92;36.37;97317.41;5021989;28;20126;-65
2022/07/18 09:53:36;;;;;;;4.63;2.85;;;;;;;31.86;34.13;97327.00;5019934;28;20045;-68
2022/07/18 09:56:08;;;;;;;8.48;2.58;;;;;;;32.00;33.76;97311.97;5021736;28;20049;-64
2022/07/18 09:58:39;;;;;;;4.35;2.50;;;;;;;32.26;32.62;97318.97;5021958;28;20042;-67
2022/07/18 10:01:07;;;;;;;4.35;3.10;;;;;;;32.17;34.79;97319.91;5018057;28;20044;-64
2022/07/18 10:03:33;;;;;;;16.17;2.97;;;;;;;32.54;33.48;97327.78;5019394;28;20049;-66
2022/07/18 10:06:00;;;;;;;4.15;2.20;;;;;;;32.63;33.26;97327.63;5021951;28;20046;-66
2022/07/18 10:08:29;;;;;;;5.57;2.63;;;;;;;33.00;31.97;97326.91;5016353;28;20041;-66
2022/07/18 10:10:55;;;;;;;7.35;2.55;;;;;;;33.16;31.99;97322.69;5022639;28;20414;-65
2022/07/18 10:13:23;;;;;;;4.88;2.90;;;;;;;32.91;33.46;97322.19;5017099;28;20038;-66
2022/07/18 10:15:50;;;;;;;4.10;2.30;;;;;;;31.95;34.90;97317.56;5023038;28;20038;-66
2022/07/18 10:18:19;;;;;;;3.80;2.40;;;;;;;31.22;36.88;97312.47;5019731;28;20041;-65
2022/07/18 10:21:11;;;;;;;7.22;2.67;;;;;;;30.79;35.79;97312.03;5027549;28;20045;-66
2022/07/18 10:23:37;;;;;;;10.38;2.70;;;;;;;29.45;36.50;97310.91;5022385;28;20042;-65
2022/07/18 10:26:14;;;;;;;4.15;2.28;;;;;;;30.02;35.39;97307.25;5033539;28;20083;-63
2022/07/18 10:28:55;;;;;;;8.18;2.33;;;;;;;30.64;38.61;97303.53;5021227;28;20401;-67
2022/07/18 10:31:23;;;;;;;3.65;1.98;;;;;;;30.49;31.44;97311.25;5016198;28;20041;-66
2022/07/18 10:33:49;;;;;;;5.25;2.58;;;;;;;30.80;37.20;97296.59;5021860;28;20443;-65
2022/07/18 10:36:22;;;;;;;5.40;3.08;;;;;;;30.58;36.84;97302.66;5016307;28;20037;-67
2022/07/18 10:39:08;;;;;;;5.47;2.50;;;;;;;30.59;36.67;97301.38;5020649;28;20775;-66
2022/07/18 10:41:39;;;;;;;5.07;2.33;;;;;;;30.72;35.74;97298.28;5019789;28;20057;-67
2022/07/18 10:44:23;;;;;;;5.22;3.03;;;;;;;30.30;39.71;97302.13;5015626;28;20041;-64
2022/07/18 10:47:12;;;;;;;3.58;2.13;;;;;;;30.01;35.39;97297.97;5016307;28;20045;-66
2022/07/18 10:49:47;;;;;;;5.65;2.25;;;;;;;30.92;34.42;97294.78;5035096;28;20095;-64
2022/07/18 10:52:25;;;;;;;4.97;2.72;;;;;;;30.58;35.12;97308.31;5015954;28;20103;-65
2022/07/18 10:55:03;;;;;;;6.35;3.13;;;;;;;30.06;38.29;97302.19;5016449;28;20045;-65
2022/07/18 10:57:39;;;;;;;5.95;3.00;;;;;;;30.23;38.72;97294.81;5016392;28;20469;-64
2022/07/18 11:00:35;;;;;;;4.80;2.80;;;;;;;30.34;37.15;97294.25;5015548;28;20045;-65
2022/07/18 11:03:00;;;;;;;8.02;3.25;;;;;;;30.23;37.56;97302.50;5035742;28;20037;-66
2022/07/18 11:05:26;;;;;;;7.27;2.93;;;;;;;30.20;35.91;97295.00;5015560;28;20045;-66
2022/07/18 11:07:57;;;;;;;8.68;3.50;;;;;;;30.83;34.56;97294.84;5020974;28;20314;-66
2022/07/18 11:10:41;;;;;;;5.45;2.90;;;;;;;31.01;36.74;97291.81;5013984;28;20552;-66
2022/07/18 11:13:25;;;;;;;2.40;1.90;;;;;;;31.01;37.06;97291.81;5018669;28;20037;-65
2022/07/18 11:16:13;;;;;;;5.93;3.00;;;;;;;30.81;37.06;97286.84;5018956;28;20053;-65
2022/07/18 11:18:39;;;;;;;14.55;2.85;;;;;;;30.76;35.68;97298.09;5020109;28;20069;-64
2022/07/18 11:21:15;;;;;;;6.27;2.27;;;;;;;30.60;32.84;97297.28;5018984;28;20482;-65
2022/07/18 11:23:49;;;;;;;5.57;1.92;;;;;;;31.16;31.44;97291.78;5024773;28;20463;-68
2022/07/18 11:26:19;;;;;;;8.77;3.40;;;;;;;30.56;35.02;97290.25;5018101;28;20038;-65
2022/07/18 11:28:48;;;;;;;6.55;2.53;;;;;;;30.51;37.00;97288.91;5018305;28;20046;-66
2022/07/18 11:31:15;;;;;;;7.25;2.92;;;;;;;30.27;36.32;97286.94;5009262;28;20037;-65
2022/07/18 11:33:45;;;;;;;6.10;2.67;;;;;;;30.33;34.05;97287.03;5024009;28;20037;-66
2022/07/18 11:36:13;;;;;;;3.53;2.28;;;;;;;30.57;37.33;97275.66;5018866;28;20494;-65
2022/07/18 11:38:47;;;;;;;6.63;2.10;;;;;;;31.12;35.21;97270.66;5024866;28;20489;-65